M I D A S
Marine Information and Data Acquisition System
Tripno 1870 of the Zeeleeuw from 2010-04-28 06:30:26 to 2010-04-28 15:18:35
Back to CruiseResearch ActivitiesStationsMapUnderway DataData graphs

EquipmentUnitsComment
TimeDGPSUTC
LatitudeDGPSDM.mWGS84
LongitudeDGPSDM.mWGS84
TemperatureSBE03/SBE38deg celciusITS90
ConductivitySBE21S/mITS90
SalinitySBE21 Practical Salinity Units
ChlorophylAChelsea fluorimeterg/lCalibrated in Aceton
Missing or incorrect values are displayed as -999
Sea surface data collected by the RV Zeeleeuw from 2010-04-28 06:55:22 to 2010-04-28 15:37:59
Time Latitude Longitude Temperature Conductivity Salinity ChlorophylA
2010-04-28 06:56:27 51°13.68 2°55.881 19.11 0.086076 0.453753 -1.000568
2010-04-28 06:57:27 51°13.692 2°55.785 19.1218 0.085972 0.453212 -1.000568
2010-04-28 06:58:27 51°13.694 2°55.756 19.1089 0.085972 0.453247 -1.000568
2010-04-28 06:59:27 51°13.705 2°55.747 19.201 0.085972 0.453274 -1.000568
2010-04-28 07:00:27 51°13.758 2°55.698 19.0197 0.085972 0.453295 -1.000568
2010-04-28 07:01:27 51°13.866 2°55.616 18.9992 0.085972 0.453364 -1.035392
2010-04-28 07:02:27 51°14.006 2°55.517 19.0149 0.085972 0.453392 -1.035392
2010-04-28 07:03:27 51°14.164 2°55.394 19.0327 0.085972 0.453413 -1.035392
2010-04-28 07:04:26 51°14.314 2°55.251 19.0513 0.085972 0.453434 -1.035392
2010-04-28 07:05:24 51°14.466 2°55.099 19.0735 0.085972 0.453462 -1.035392
2010-04-28 07:06:23 51°14.615 2°54.917 19.0433 0.085972 0.453496 -1.070216
2010-04-28 07:07:24 51°14.787 2°54.735 19.0564 0.085972 0.453538 -1.035392
2010-04-28 07:08:23 51°14.966 2°54.552 18.9784 0.085972 0.453566 -1.000568
2010-04-28 07:09:23 51°15.154 2°54.426 18.8205 0.085972 0.453594 -1.000568
2010-04-28 07:10:23 51°15.338 2°54.464 18.9643 0.085972 0.453607 -1.035392
2010-04-28 07:11:23 51°15.485 2°54.641 18.9717 0.085972 0.453656 -1.000568
2010-04-28 07:12:23 51°15.584 2°54.893 18.9722 0.085972 0.453684 -1.035392
2010-04-28 07:13:23 51°15.692 2°55.134 12.6459 0.084723 0.45173 1.924652
2010-04-28 07:14:23 51°15.789 2°55.393 11.4843 3.58212 30.252249 7.078612
2010-04-28 07:15:23 51°15.882 2°55.655 11.3859 3.49167 30.17559 6.695548
2010-04-28 07:16:23 51°15.979 2°55.918 11.3092 3.484924 30.240169 7.008964
2010-04-28 07:17:23 51°16.074 2°56.19 11.2775 3.476808 30.240864 6.834844
2010-04-28 07:18:23 51°16.164 2°56.471 11.3686 3.464368 30.149281 6.521427
2010-04-28 07:19:23 51°16.229 2°56.771 11.3057 3.471009 30.171989 6.242835
2010-04-28 07:20:23 51°16.301 2°57.043 11.3173 3.456462 30.076192 6.765196
2010-04-28 07:21:23 51°16.371 2°57.307 11.3029 3.456884 30.090591 6.660724
2010-04-28 07:22:23 51°16.502 2°57.524 11.3085 3.466477 30.185825 5.650826
2010-04-28 07:23:23 51°16.638 2°57.749 11.2922 3.461628 30.14222 5.999067
2010-04-28 07:24:29 51°16.789 2°58.002 11.2658 3.463525 30.177392 6.765196
2010-04-28 07:25:39 51°16.95 2°58.271 11.2437 3.462682 30.190642 6.556251
2010-04-28 07:27:03 51°17.123 2°58.621 11.2128 3.46321 30.226932 6.347307
2010-04-28 07:28:16 51°17.318 2°58.841 11.1759 3.454039 30.156973 8.680519
2010-04-28 07:29:17 51°17.396 2°59.017 11.1324 3.448979 30.136534 10.386897
2010-04-28 07:30:17 51°17.342 2°59.096 11.0859 3.437805 30.076903 10.386897
2010-04-28 07:31:17 51°17.283 2°59.12 11.074 3.434432 30.066255 9.864537
2010-04-28 07:32:17 51°17.222 2°59.109 11.0663 3.437595 30.113886 9.899361
2010-04-28 07:33:17 51°17.161 2°59.065 11.1357 3.433484 30.069395 9.655592
2010-04-28 07:34:16 51°17.113 2°58.999 11.1842 3.447187 30.15037 7.705445
2010-04-28 07:35:16 51°17.072 2°58.92 11.2097 3.4494 30.137372 6.033891
2010-04-28 07:36:17 51°17.032 2°58.842 11.2177 3.455198 30.176002 4.989169
2010-04-28 07:37:16 51°16.994 2°58.767 11.2178 3.45678 30.185469 4.431984
2010-04-28 07:38:17 51°16.954 2°58.691 11.222 3.450665 30.126901 4.118568
2010-04-28 07:39:16 51°16.916 2°58.618 11.2119 3.453617 30.159385 3.909623
2010-04-28 07:40:16 51°16.876 2°58.544 11.2063 3.451719 30.144252 4.292688
2010-04-28 07:41:16 51°16.836 2°58.47 11.1984 3.451087 30.147869 4.675753
2010-04-28 07:42:17 51°16.796 2°58.393 11.1992 3.453933 30.178702 4.675753
2010-04-28 07:43:17 51°16.756 2°58.317 11.1734 3.44919 30.141827 5.023993
2010-04-28 07:44:17 51°16.715 2°58.242 11.1562 3.442443 30.090068 5.650826
2010-04-28 07:45:17 51°16.675 2°58.167 11.1579 3.440757 30.082154 5.929418
2010-04-28 07:46:16 51°16.635 2°58.092 11.1563 3.44782 30.153252 5.85977
2010-04-28 07:47:17 51°16.6 2°58.009 11.1702 3.441916 30.095346 5.581178
2010-04-28 07:48:16 51°16.569 2°57.926 11.1787 3.449822 30.163568 5.85977
2010-04-28 07:49:17 51°16.543 2°57.837 11.2006 3.445606 30.109686 5.33741
2010-04-28 07:50:16 51°16.527 2°57.749 11.2141 3.449084 30.128462 5.058817
2010-04-28 07:51:16 51°16.513 2°57.662 11.2315 3.454566 30.171825 4.849873
2010-04-28 07:52:16 51°16.498 2°57.549 11.2396 3.456358 30.178134 4.710577
2010-04-28 07:53:16 51°16.515 2°57.388 11.2467 3.458361 30.187782 4.745401
2010-04-28 07:54:16 51°16.58 2°57.226 11.224 3.46068 30.203737 7.217908
2010-04-28 07:55:16 51°16.636 2°57.159 11.2206 3.465635 30.258876 8.018862
2010-04-28 07:56:16 51°16.674 2°57.136 11.228 3.467111 30.27252 9.481472
2010-04-28 07:57:16 51°16.722 2°57.132 11.2446 3.467743 30.277995 11.361971
2010-04-28 07:58:16 51°16.785 2°57.221 11.2551 3.468481 30.272761 9.481472
2010-04-28 07:59:16 51°16.751 2°57.367 11.2643 3.467321 30.245263 8.993935
2010-04-28 08:00:16 51°16.687 2°57.401 11.2309 3.465634 30.234793 10.317249
2010-04-28 08:01:16 51°16.636 2°57.395 11.2126 3.462156 30.22258 10.49137
2010-04-28 08:02:16 51°16.591 2°57.374 11.2491 3.459204 30.2018 8.332278
2010-04-28 08:03:16 51°16.537 2°57.276 11.2209 3.466161 30.239244 6.451779
2010-04-28 08:04:16 51°16.458 2°56.994 11.2242 3.467743 30.279299 6.80002
2010-04-28 08:05:16 51°16.374 2°56.642 11.187 3.468165 30.285992 8.471574
2010-04-28 08:06:16 51°16.293 2°56.276 11.1455 3.468587 30.317496 8.08851
2010-04-28 08:07:16 51°16.222 2°55.901 11.1382 3.468587 30.352172 7.775093
2010-04-28 08:08:16 51°16.164 2°55.517 11.1219 3.467955 30.350617 7.461677
2010-04-28 08:09:16 51°16.122 2°55.126 11.112 3.469115 30.374335 9.55112
2010-04-28 08:10:16 51°16.082 2°54.732 11.0757 3.466796 30.362298 11.884332
2010-04-28 08:11:16 51°16.047 2°54.337 11.0406 3.467956 30.405757 11.257499
2010-04-28 08:12:16 51°16.009 2°53.94 11.0505 3.469854 30.450564 9.516296
2010-04-28 08:13:16 51°15.968 2°53.543 10.9846 3.469326 30.431595 9.133231
2010-04-28 08:14:16 51°15.909 2°53.154 10.8761 3.474915 30.555421 9.377
2010-04-28 08:15:16 51°15.847 2°52.768 10.8311 3.476286 30.649276 20.067984
2010-04-28 08:16:16 51°15.785 2°52.382 10.81 3.476287 30.679991 21.983307
2010-04-28 08:17:16 51°15.723 2°51.997 10.7974 3.479028 30.726921 18.779494
2010-04-28 08:18:16 51°15.663 2°51.612 10.7482 3.481031 30.755272 14.670256
2010-04-28 08:19:16 51°15.543 2°51.277 10.7299 3.481664 30.791698 9.864537
2010-04-28 08:20:16 51°15.411 2°50.938 10.7091 3.486092 30.85942 14.078247
2010-04-28 08:21:16 51°15.35 2°50.558 10.6816 3.486303 30.877013 15.227441
2010-04-28 08:22:16 51°15.338 2°50.167 10.6301 3.48778 30.92263 13.521062
2010-04-28 08:23:16 51°15.396 2°49.797 10.5597 3.493052 31.016613 12.511165
2010-04-28 08:24:16 51°15.496 2°49.452 10.5123 3.497059 31.116837 11.257499
2010-04-28 08:25:16 51°15.536 2°49.082 10.4587 3.499062 31.179111 8.924287
2010-04-28 08:26:16 51°15.519 2°48.7 10.386 3.503702 31.271124 9.829713
2010-04-28 08:27:16 51°15.502 2°48.317 10.3223 3.50676 31.362974 12.511165
2010-04-28 08:28:16 51°15.387 2°48.056 10.2954 3.505917 31.412221 13.033525
2010-04-28 08:29:16 51°15.202 2°47.946 10.3525 3.506866 31.427227 13.381766
2010-04-28 08:30:16 51°15.19 2°47.597 10.3227 3.504862 31.358684 11.570915
2010-04-28 08:31:16 51°15.182 2°47.229 10.2893 3.507182 31.417849 12.511165
2010-04-28 08:32:16 51°15.165 2°46.854 10.3021 3.506761 31.437319 12.197748
2010-04-28 08:33:16 51°15.112 2°46.481 10.3195 3.506339 31.423374 11.187851
2010-04-28 08:34:16 51°15.054 2°46.106 10.3453 3.504968 31.39027 11.222675
2010-04-28 08:35:16 51°14.999 2°45.729 10.3337 3.506339 31.383755 10.769962
2010-04-28 08:36:16 51°14.931 2°45.357 10.3277 3.505917 31.393452 10.944082
2010-04-28 08:37:16 51°14.857 2°44.985 10.285 3.507815 31.428315 11.95398
2010-04-28 08:38:16 51°14.785 2°44.612 10.2998 3.508553 31.458644 11.988804
2010-04-28 08:39:16 51°14.709 2°44.241 10.2894 3.512981 31.501335 12.545989
2010-04-28 08:40:16 51°14.654 2°43.86 10.2817 3.514668 31.525816 13.277294
2010-04-28 08:41:16 51°14.592 2°43.479 10.3127 3.514457 31.516032 13.521062
2010-04-28 08:42:16 51°14.542 2°43.092 10.3241 3.511927 31.472008 12.929053
2010-04-28 08:43:16 51°14.493 2°42.704 10.3461 3.515406 31.495471 12.894229
2010-04-28 08:44:16 51°14.444 2°42.317 10.3143 3.513718 31.4425 11.884332
2010-04-28 08:45:16 51°14.396 2°41.938 10.0847 3.523314 31.623857 16.550755
2010-04-28 08:46:16 51°14.346 2°41.564 10.048 3.522261 31.774058 18.187485
2010-04-28 08:47:16 51°14.304 2°41.19 10.0984 3.518572 31.756925 16.794523
2010-04-28 08:48:16 51°14.266 2°40.816 10.1391 3.518782 31.718689 16.202514
2010-04-28 08:49:16 51°14.249 2°40.442 10.1772 3.519309 31.68795 16.202514
2010-04-28 08:50:16 51°14.233 2°40.068 10.1912 3.51973 31.668202 16.655227
2010-04-28 08:51:16 51°14.217 2°39.694 10.2127 3.522576 31.677625 17.421356
2010-04-28 08:52:16 51°14.2 2°39.32 10.2173 3.526477 31.704608 18.361606
2010-04-28 08:53:16 51°14.179 2°38.944 10.1002 3.532276 31.764631 17.316884
2010-04-28 08:54:16 51°14.159 2°38.564 9.9247 3.536073 31.933128 19.68492
2010-04-28 08:55:16 51°14.141 2°38.181 9.894 3.526375 31.950694 19.336679
2010-04-28 08:56:16 51°14.144 2°37.796 9.8789 3.525427 31.967655 18.849142
2010-04-28 08:57:16 51°14.147 2°37.41 9.8803 3.525427 31.979134 17.908893
2010-04-28 08:58:16 51°14.154 2°37.026 9.8879 3.52743 31.998599 17.386532
2010-04-28 08:59:16 51°14.183 2°36.652 9.9285 3.529433 32.007292 17.10794
2010-04-28 09:00:16 51°14.221 2°36.285 9.9823 3.534915 32.02804 16.864171
2010-04-28 09:01:16 51°14.288 2°35.933 10.0817 3.545458 32.084579 15.81945
2010-04-28 09:02:16 51°14.417 2°35.634 10.1117 3.559479 32.137913 15.366737
2010-04-28 09:03:16 51°14.598 2°35.418 10.0972 3.564751 32.180759 14.809552
2010-04-28 09:04:16 51°14.788 2°35.222 10.0952 3.566544 32.206638 14.008599
2010-04-28 09:05:16 51°14.992 2°35.079 10.0987 3.567071 32.21552 11.536091
2010-04-28 09:06:16 51°15.207 2°35.033 10.0557 3.572448 32.257981 7.879566
2010-04-28 09:07:16 51°15.421 2°35.003 9.9867 3.558637 32.174658 8.053686
2010-04-28 09:08:16 51°15.634 2°34.964 9.9181 3.54588 32.103181 8.123334
2010-04-28 09:09:16 51°15.844 2°34.919 9.8674 3.539765 32.104914 8.43675
2010-04-28 09:10:16 51°15.976 2°34.887 9.8955 3.537235 32.095256 8.924287
2010-04-28 09:11:16 51°16.051 2°34.88 9.9815 3.541768 32.118615 7.984038
2010-04-28 09:12:16 51°16.097 2°34.899 9.9531 3.547567 32.119431 7.008964
2010-04-28 09:13:16 51°16.13 2°34.975 9.9554 3.551679 32.190333 9.028759
2010-04-28 09:14:16 51°16.09 2°35.082 10.0191 3.552311 32.160683 6.416955
2010-04-28 09:15:16 51°16.003 2°35.107 10.0599 3.55484 32.102832 3.909623
2010-04-28 09:16:16 51°15.935 2°35.073 10.0065 3.550413 32.106397 4.849873
2010-04-28 09:17:16 51°15.882 2°35.02 9.8961 3.544298 32.101643 6.277659
2010-04-28 09:18:16 51°15.841 2°34.956 9.9595 3.53966 32.094494 5.267761
2010-04-28 09:19:16 51°15.808 2°34.887 9.9138 3.541136 32.103604 6.277659
2010-04-28 09:20:16 51°15.775 2°34.814 10.0349 3.54219 32.084018 4.431984
2010-04-28 09:21:16 51°15.74 2°34.738 10.0389 3.550307 32.088846 3.247966
2010-04-28 09:22:16 51°15.704 2°34.66 9.9825 3.549886 32.107558 4.466808
2010-04-28 09:23:16 51°15.669 2°34.581 9.9755 3.546723 32.097299 4.745401
2010-04-28 09:24:16 51°15.634 2°34.502 9.9772 3.546828 32.096923 5.023993
2010-04-28 09:25:16 51°15.599 2°34.423 10.0704 3.547144 32.08862 4.919521
2010-04-28 09:26:16 51°15.564 2°34.344 9.9528 3.550518 32.102435 6.416955
2010-04-28 09:27:16 51°15.529 2°34.267 9.9848 3.545458 32.101094 6.451779
2010-04-28 09:28:16 51°15.494 2°34.19 9.9729 3.544825 32.08109 5.058817
2010-04-28 09:29:16 51°15.459 2°34.114 9.9153 3.545774 32.111463 7.078612
2010-04-28 09:30:16 51°15.423 2°34.038 9.9018 3.543561 32.130189 7.705445
2010-04-28 09:31:16 51°15.387 2°33.962 9.9127 3.543244 32.132045 7.740269
2010-04-28 09:32:16 51°15.352 2°33.887 9.9193 3.544826 32.144375 7.844741
2010-04-28 09:33:16 51°15.317 2°33.813 9.9161 3.546723 32.141878 8.192982
2010-04-28 09:34:16 51°15.282 2°33.74 9.9384 3.546091 32.154959 8.297454
2010-04-28 09:35:16 51°15.248 2°33.666 9.9139 3.547673 32.164403 8.332278
2010-04-28 09:36:16 51°15.22 2°33.588 9.9087 3.547567 32.173436 8.924287
2010-04-28 09:37:16 51°15.207 2°33.509 9.9378 3.549359 32.178511 8.471574
2010-04-28 09:38:16 51°15.204 2°33.433 9.9616 3.553893 32.216961 9.585944
2010-04-28 09:39:16 51°15.206 2°33.357 9.988 3.557056 32.225718 8.993935
2010-04-28 09:40:16 51°15.219 2°33.279 9.941 3.560219 32.24962 9.899361
2010-04-28 09:41:16 51°15.258 2°33.242 9.9024 3.56275 32.307634 10.804786
2010-04-28 09:42:16 51°15.306 2°33.263 9.9636 3.560958 32.30405 10.421721
2010-04-28 09:43:16 51°15.338 2°33.311 9.9636 3.563593 32.300934 10.49137
2010-04-28 09:44:16 51°15.356 2°33.363 9.9525 3.565491 32.317156 10.526194
2010-04-28 09:45:16 51°15.354 2°33.453 9.9487 3.566545 32.326328 8.993935
2010-04-28 09:46:16 51°15.278 2°33.473 10.0212 3.565491 32.341057 10.386897
2010-04-28 09:47:16 51°15.157 2°33.32 9.994 3.56433 32.244106 7.984038
2010-04-28 09:48:16 51°15.026 2°33.123 9.9486 3.563276 32.27173 10.212777
2010-04-28 09:49:16 51°14.899 2°32.924 9.9805 3.561484 32.28548 11.77986
2010-04-28 09:50:17 51°14.751 2°32.734 10.0346 3.569497 32.320604 10.421721
2010-04-28 09:51:16 51°14.587 2°32.566 10.0437 3.575507 32.349976 10.735138
2010-04-28 09:52:17 51°14.417 2°32.389 10.0833 3.579197 32.372622 10.456545
2010-04-28 09:53:16 51°14.253 2°32.216 10.0681 3.582887 32.388747 10.49137
2010-04-28 09:54:17 51°14.084 2°32.04 10.0977 3.585839 32.416242 10.421721
2010-04-28 09:55:16 51°13.923 2°31.865 10.095 3.594485 32.495883 9.760064
2010-04-28 09:56:16 51°13.829 2°31.695 10.104 3.600495 32.546851 11.222675
2010-04-28 09:57:16 51°13.828 2°31.596 10.1376 3.605557 32.586817 7.426853
2010-04-28 09:58:16 51°13.843 2°31.542 10.1736 3.612937 32.623175 6.695548
2010-04-28 09:59:17 51°13.859 2°31.49 10.1268 3.620529 32.691401 7.461677
2010-04-28 10:00:16 51°13.899 2°31.436 10.1286 3.622322 32.731259 8.401926
2010-04-28 10:01:17 51°13.961 2°31.439 10.1475 3.625802 32.782292 8.889463
2010-04-28 10:02:16 51°14.025 2°31.476 10.0972 3.631285 32.80964 8.750167
2010-04-28 10:03:17 51°14.09 2°31.536 10.0821 3.628649 32.826286 9.098407
2010-04-28 10:04:16 51°14.151 2°31.599 10.041 3.626224 32.819455 10.282425
2010-04-28 10:05:16 51°14.211 2°31.658 10.0323 3.622639 32.81413 11.396795
2010-04-28 10:06:16 51°14.27 2°31.718 10.0151 3.622956 32.834187 11.95398
2010-04-28 10:07:16 51°14.328 2°31.788 10.1295 3.624432 32.817526 8.297454
2010-04-28 10:08:16 51°14.382 2°31.856 10.2327 3.629176 32.78188 5.302586
2010-04-28 10:09:16 51°14.434 2°31.92 10.1805 3.630441 32.759584 4.501632
2010-04-28 10:10:17 51°14.487 2°31.981 10.2065 3.624852 32.713694 3.491735
2010-04-28 10:11:16 51°14.537 2°32.041 10.1413 3.623903 32.711447 4.362336
2010-04-28 10:12:16 51°14.587 2°32.1 10.0294 3.627595 32.829589 9.063583
2010-04-28 10:13:16 51°14.637 2°32.151 10.0547 3.622323 32.800686 7.357205
2010-04-28 10:14:16 51°14.691 2°32.197 10.0619 3.620213 32.737785 4.188216
2010-04-28 10:15:16 51°14.748 2°32.243 10.0023 3.619265 32.787469 8.924287
2010-04-28 10:16:16 51°14.806 2°32.29 9.9815 3.619266 32.831488 9.760064
2010-04-28 10:17:16 51°14.864 2°32.337 9.9266 3.618949 32.83344 9.028759
2010-04-28 10:18:16 51°14.922 2°32.385 9.9409 3.620637 32.894641 10.073481
2010-04-28 10:19:17 51°14.979 2°32.444 9.886 3.621164 32.908082 11.118203
2010-04-28 10:20:16 51°15.035 2°32.504 9.9021 3.617685 32.903907 10.874434
2010-04-28 10:21:16 51°15.092 2°32.565 9.9159 3.616314 32.878235 10.595842
2010-04-28 10:22:16 51°15.146 2°32.635 10.0698 3.613678 32.844217 10.108305
2010-04-28 10:23:16 51°15.176 2°32.751 9.9854 3.61821 32.751235 6.556251
2010-04-28 10:24:16 51°15.175 2°32.881 9.9565 3.617684 32.817737 8.018862
2010-04-28 10:25:16 51°15.146 2°32.998 9.9694 3.614732 32.8166 8.993935
2010-04-28 10:26:16 51°15.095 2°33.078 9.9722 3.617157 32.832993 9.307352
2010-04-28 10:27:16 51°15.04 2°33.109 9.9842 3.619371 32.847253 8.924287
2010-04-28 10:28:16 51°14.999 2°33.107 10.0821 3.620635 32.766138 5.964243
2010-04-28 10:29:16 51°14.976 2°33.102 10.1748 3.625486 32.78642 6.591076
2010-04-28 10:30:16 51°14.966 2°33.075 10.1283 3.629176 32.78772 6.939316
2010-04-28 10:31:16 51°15.011 2°33.042 10.1082 3.628438 32.816846 7.496501
2010-04-28 10:32:16 51°15.142 2°33.034 9.9409 3.629282 32.878851 9.133231
2010-04-28 10:33:16 51°15.335 2°33.041 9.8736 3.621692 32.914148 11.501267
2010-04-28 10:34:16 51°15.535 2°33.053 9.8463 3.611886 32.855582 11.501267
2010-04-28 10:35:16 51°15.733 2°33.067 9.834 3.60324 32.785072 11.675387
2010-04-28 10:36:16 51°15.931 2°33.082 9.844 3.595332 32.726406 12.337044
2010-04-28 10:37:17 51°16.05 2°32.901 9.9168 3.588372 32.625192 8.123334
2010-04-28 10:38:16 51°16.054 2°32.601 9.8725 3.589532 32.620066 11.153027
2010-04-28 10:39:16 51°16.056 2°32.275 9.8923 3.589005 32.62133 11.431619
2010-04-28 10:40:16 51°16.062 2°31.942 9.9298 3.590902 32.617809 9.307352
2010-04-28 10:41:16 51°16.071 2°31.608 9.9611 3.593011 32.617887 9.237704
2010-04-28 10:42:16 51°16.044 2°31.282 9.998 3.596806 32.607231 3.631031
2010-04-28 10:43:16 51°15.983 2°30.968 10.0547 3.600813 32.645424 4.431984
2010-04-28 10:44:16 51°15.88 2°30.685 9.9975 3.603765 32.620446 2.342541
2010-04-28 10:45:16 51°15.77 2°30.406 10.026 3.605979 32.682149 3.631031
2010-04-28 10:46:16 51°15.638 2°30.157 10.0375 3.614203 32.71383 1.9943
2010-04-28 10:47:16 51°15.498 2°29.918 10.0513 3.616629 32.772631 3.526559
2010-04-28 10:48:16 51°15.361 2°29.675 9.9821 3.621268 32.801056 3.491735
2010-04-28 10:49:16 51°15.224 2°29.43 9.9992 3.621375 32.846882 4.292688
2010-04-28 10:50:16 51°15.088 2°29.185 10.0198 3.625381 32.885829 3.735503
2010-04-28 10:51:17 51°14.949 2°28.936 10.0097 3.630653 32.913985 3.039022
2010-04-28 10:52:16 51°14.817 2°28.694 10.0241 3.634344 32.954882 2.133597
2010-04-28 10:53:16 51°14.681 2°28.45 10.0031 3.639828 33.013879 1.750532
2010-04-28 10:54:16 51°14.545 2°28.206 10.0312 3.645416 33.073967 0.949579
2010-04-28 10:55:17 51°14.408 2°27.958 9.9962 3.650056 33.10377 0.984403
2010-04-28 10:56:16 51°14.275 2°27.716 10.0507 3.651005 33.14372 1.019227
2010-04-28 10:57:17 51°14.135 2°27.468 9.9861 3.657754 33.179222 0.775459
2010-04-28 10:58:15 51°14.003 2°27.23 9.9506 3.657438 33.226534 1.47194
2010-04-28 10:59:17 51°13.862 2°26.976 9.9371 3.659548 33.282131 2.864902
2010-04-28 11:00:17 51°13.74 2°26.712 9.9373 3.663766 33.333783 3.317614
2010-04-28 11:01:16 51°13.729 2°26.385 9.8229 3.668933 33.388344 3.422087
2010-04-28 11:02:17 51°13.829 2°26.075 9.8957 3.666825 33.448008 3.596207
2010-04-28 11:03:16 51°14.043 2°25.923 9.7693 3.689075 33.636908 3.909623
2010-04-28 11:04:17 51°14.277 2°25.831 9.5708 3.706794 34.010135 3.735503
2010-04-28 11:05:16 51°14.501 2°25.75 9.5665 3.697621 34.000991 4.466808
2010-04-28 11:06:17 51°14.728 2°25.679 9.5508 3.692348 33.957024 4.640929
2010-04-28 11:07:15 51°14.942 2°25.623 9.5419 3.690977 33.954539 4.989169
2010-04-28 11:08:17 51°15.172 2°25.567 9.5251 3.686126 33.917175 4.954345
2010-04-28 11:09:16 51°15.393 2°25.518 9.5336 3.686127 33.930266 4.57128
2010-04-28 11:10:16 51°15.62 2°25.469 9.5503 3.687076 33.927667 4.362336
2010-04-28 11:11:17 51°15.853 2°25.413 9.5865 3.688657 33.926932 3.805151
2010-04-28 11:12:16 51°16.083 2°25.363 9.5751 3.688235 33.885722 3.178318
2010-04-28 11:13:17 51°16.332 2°25.362 9.63 3.683068 33.850518 3.143494
2010-04-28 11:14:16 51°16.575 2°25.497 9.6105 3.68254 33.796865 2.551485
2010-04-28 11:15:17 51°16.812 2°25.709 9.6466 3.684122 33.833699 2.621133
2010-04-28 11:16:15 51°17.037 2°25.917 9.6364 3.684754 33.813367 2.029124
2010-04-28 11:17:17 51°17.276 2°26.142 9.7002 3.684965 33.817052 1.959476
2010-04-28 11:18:15 51°17.498 2°26.353 9.6588 3.689077 33.797129 1.715708
2010-04-28 11:19:17 51°17.733 2°26.578 9.6638 3.68391 33.750536 2.307717
2010-04-28 11:20:17 51°17.96 2°26.796 9.6968 3.675158 33.679553 2.725606
2010-04-28 11:21:16 51°18.183 2°27.01 9.7 3.668197 33.593396 2.969374
2010-04-28 11:22:16 51°18.41 2°27.229 9.7051 3.661132 33.516102 3.805151
2010-04-28 11:23:15 51°18.635 2°27.442 9.6992 3.655649 33.475369 4.22304
2010-04-28 11:24:16 51°18.869 2°27.663 9.6886 3.649216 33.395504 3.665855
2010-04-28 11:25:15 51°19.097 2°27.874 9.7339 3.63962 33.309858 5.093641
2010-04-28 11:26:16 51°19.332 2°28.092 9.8072 3.638143 33.234028 2.342541
2010-04-28 11:27:15 51°19.56 2°28.301 9.7755 3.638987 33.208167 2.272893
2010-04-28 11:28:17 51°19.801 2°28.519 9.7711 3.632765 33.156219 2.690782
2010-04-28 11:29:16 51°20.03 2°28.728 9.6898 3.629496 33.112595 2.551485
2010-04-28 11:30:16 51°20.263 2°28.94 9.5696 3.622222 33.158253 6.556251
2010-04-28 11:31:16 51°20.497 2°29.15 9.5865 3.606722 33.070775 6.208011
2010-04-28 11:32:16 51°20.731 2°29.364 9.5915 3.601134 32.995858 4.884697
2010-04-28 11:33:17 51°20.97 2°29.582 9.6526 3.597654 32.955933 4.745401
2010-04-28 11:34:15 51°21.196 2°29.786 9.5601 3.601344 32.917515 2.551485
2010-04-28 11:35:17 51°21.442 2°29.974 9.4411 3.622962 33.283928 3.317614
2010-04-28 11:36:18 51°21.696 2°30.101 9.4478 3.616319 33.272701 3.039022
2010-04-28 11:37:19 51°21.955 2°30.183 9.3977 3.617479 33.274734 3.213142
2010-04-28 11:38:31 51°22.26 2°30.218 9.4441 3.614211 33.295797 3.491735
2010-04-28 11:39:51 51°22.59 2°30.137 9.3905 3.616425 33.302559 3.874799
2010-04-28 11:40:51 51°22.837 2°30.07 9.4734 3.61379 33.320313 4.083744
2010-04-28 11:41:51 51°23.085 2°30.009 9.5779 3.620959 33.333828 2.655957
2010-04-28 11:42:51 51°23.331 2°29.949 9.4852 3.630132 33.342073 1.054051
2010-04-28 11:43:51 51°23.579 2°29.89 9.4385 3.632452 33.387743 1.228171
2010-04-28 11:44:51 51°23.828 2°29.831 9.4814 3.631398 33.431616 0.496866
2010-04-28 11:45:51 51°24.074 2°29.77 9.5099 3.646266 33.5237 0.670986
2010-04-28 11:46:50 51°24.316 2°29.715 9.3159 3.668832 33.779964 1.541588
2010-04-28 11:47:51 51°24.568 2°29.668 9.312 3.665882 33.906925 3.491735
2010-04-28 11:48:50 51°24.821 2°29.669 9.5183 3.660715 33.867662 1.611236
2010-04-28 11:49:51 51°25.076 2°29.678 9.2324 3.679062 33.94807 1.959476
2010-04-28 11:50:50 51°25.319 2°29.751 9.2188 3.670523 34.040237 2.412189
2010-04-28 11:51:51 51°25.565 2°29.874 9.2339 3.671577 34.062047 1.889828
2010-04-28 11:52:50 51°25.782 2°30.078 9.2139 3.673686 34.071336 1.611236
2010-04-28 11:53:51 51°26.003 2°30.303 9.2154 3.674319 34.09505 1.785356
2010-04-28 11:54:50 51°26.218 2°30.513 9.1929 3.67569 34.119377 1.750532
2010-04-28 11:55:50 51°26.436 2°30.724 9.1945 3.676218 34.135782 1.680884
2010-04-28 11:56:51 51°26.659 2°30.936 9.1784 3.6778 34.152917 1.785356
2010-04-28 11:57:50 51°26.861 2°31.174 9.1696 3.678432 34.175135 1.64606
2010-04-28 11:58:51 51°27.059 2°31.444 9.1646 3.67896 34.192358 1.576412
2010-04-28 11:59:50 51°27.252 2°31.705 9.1587 3.680331 34.209684 1.437116
2010-04-28 12:00:51 51°27.455 2°31.968 9.1364 3.681807 34.235181 1.47194
2010-04-28 12:01:50 51°27.652 2°32.219 9.1351 3.681491 34.249999 1.506764
2010-04-28 12:02:51 51°27.855 2°32.482 9.1394 3.681702 34.249822 1.437116
2010-04-28 12:03:50 51°28.051 2°32.736 9.1357 3.681386 34.25048 1.367467
2010-04-28 12:04:50 51°28.253 2°32.985 9.1292 3.681597 34.255027 1.402292
2010-04-28 12:05:51 51°28.473 2°33.206 9.1317 3.682124 34.267577 1.297819
2010-04-28 12:06:50 51°28.687 2°33.419 9.1319 3.681597 34.260539 1.158523
2010-04-28 12:07:51 51°28.915 2°33.613 9.1452 3.681808 34.257999 1.228171
2010-04-28 12:08:50 51°29.136 2°33.795 9.1277 3.681386 34.247332 1.367467
2010-04-28 12:09:51 51°29.364 2°33.986 9.1422 3.681808 34.262724 1.297819
2010-04-28 12:10:50 51°29.594 2°34.134 9.1747 3.682018 34.24051 0.949579
2010-04-28 12:11:50 51°29.838 2°34.215 9.1658 3.685709 34.255908 0.984403
2010-04-28 12:12:50 51°30.077 2°34.342 9.1629 3.685393 34.268366 1.019227
2010-04-28 12:13:50 51°30.312 2°34.48 9.1586 3.685709 34.277151 0.984403
2010-04-28 12:14:50 51°30.55 2°34.609 9.1848 3.687502 34.302017 0.70581
2010-04-28 12:15:50 51°30.795 2°34.686 9.1271 3.691509 34.322236 0.53169
2010-04-28 12:16:51 51°31.045 2°34.766 9.124 3.691404 34.3598 0.670986
2010-04-28 12:17:50 51°31.286 2°34.846 9.1328 3.691404 34.370861 0.636162
2010-04-28 12:18:51 51°31.534 2°34.93 9.1101 3.691721 34.370189 0.601338
2010-04-28 12:19:50 51°31.775 2°35.013 9.1084 3.690877 34.371717 0.427218
2010-04-28 12:20:51 51°32.023 2°35.101 9.122 3.690772 34.370624 0.496866
2010-04-28 12:21:50 51°32.265 2°35.185 9.1312 3.691826 34.366541 0.253098
2010-04-28 12:22:50 51°32.509 2°35.272 9.1435 3.692775 34.371638 0.287922
2010-04-28 12:23:50 51°32.754 2°35.364 9.153 3.693619 34.368533 0.218274
2010-04-28 12:24:50 51°33 2°35.454 9.1027 3.693408 34.376616 0.322746
2010-04-28 12:25:51 51°33.249 2°35.543 9.1046 3.689401 34.36036 0.35757
2010-04-28 12:26:50 51°33.489 2°35.626 9.0873 3.688874 34.360425 0.392394
2010-04-28 12:27:51 51°33.738 2°35.712 9.0871 3.687292 34.356667 0.427218
2010-04-28 12:28:50 51°33.977 2°35.813 9.0734 3.687397 34.362507 0.427218
2010-04-28 12:29:51 51°34.223 2°35.931 9.0543 3.687714 34.37766 0.427218
2010-04-28 12:30:50 51°34.462 2°36.039 9.0492 3.687398 34.391008 0.566514
2010-04-28 12:31:50 51°34.706 2°36.147 9.0327 3.688241 34.403733 0.287922
2010-04-28 12:32:50 51°34.95 2°36.258 9.0136 3.68898 34.424886 0.287922
2010-04-28 12:33:50 51°35.196 2°36.372 9.0039 3.688136 34.435968 0.427218
2010-04-28 12:34:51 51°35.448 2°36.49 8.9896 3.68782 34.443009 0.322746
2010-04-28 12:35:50 51°35.692 2°36.605 9.0179 3.689613 34.475974 0.287922
2010-04-28 12:36:51 51°35.946 2°36.721 8.9655 3.693304 34.488901 0.044153
2010-04-28 12:37:50 51°36.192 2°36.834 8.9724 3.693937 34.538509 0.044153
2010-04-28 12:38:50 51°36.44 2°36.949 9.0472 3.69689 34.558079 -0.025495
2010-04-28 12:39:50 51°36.689 2°37.061 9.1181 3.705431 34.566403 -0.199615
2010-04-28 12:40:50 51°36.939 2°37.169 9.1306 3.706696 34.572384 -0.304087
2010-04-28 12:41:50 51°37.189 2°37.277 9.14 3.713655 34.503293 -0.58268
2010-04-28 12:42:50 51°37.441 2°37.383 9.1234 3.715342 34.49466 -0.513031
2010-04-28 12:43:51 51°37.696 2°37.491 9.0399 3.706063 34.514153 -0.408559
2010-04-28 12:44:50 51°37.947 2°37.576 9.0472 3.701423 34.495376 -0.304087
2010-04-28 12:45:51 51°38.202 2°37.589 8.9268 3.694464 34.508925 0.078977
2010-04-28 12:46:50 51°38.423 2°37.44 8.8886 3.687294 34.501226 -0.199615
2010-04-28 12:47:50 51°38.645 2°37.272 8.8692 3.687189 34.540866 0.18345
2010-04-28 12:48:50 51°38.859 2°37.167 8.8925 3.686662 34.55457 -0.060319
2010-04-28 12:49:50 51°39.007 2°36.987 8.8782 3.692039 34.578663 -0.095143
2010-04-28 12:50:51 51°39.148 2°36.801 8.8921 3.695203 34.629295 -0.199615
2010-04-28 12:51:50 51°39.105 2°36.612 8.8704 3.696469 34.654542 -0.338911
2010-04-28 12:52:50 51°39.018 2°36.437 8.8576 3.698789 34.67957 -0.234439
2010-04-28 12:53:50 51°38.895 2°36.287 8.8499 3.697524 34.685644 -0.199615
2010-04-28 12:54:51 51°38.781 2°36.182 8.8568 3.697102 34.682041 -0.164791
2010-04-28 12:55:50 51°38.705 2°36.16 8.8882 3.696786 34.67552 -0.234439
2010-04-28 12:56:51 51°38.642 2°36.222 8.9875 3.697945 34.673974 -0.304087
2010-04-28 12:57:50 51°38.6 2°36.302 9.0678 3.706592 34.664704 -0.234439
2010-04-28 12:58:50 51°38.574 2°36.391 9.1795 3.712602 34.649698 -0.129967
2010-04-28 12:59:50 51°38.565 2°36.566 9.1629 3.723252 34.661428 0.009329
2010-04-28 13:00:50 51°38.644 2°36.89 8.9083 3.722198 34.676778 -0.025495
2010-04-28 13:01:51 51°38.843 2°36.827 8.8908 3.697418 34.646792 -0.060319
2010-04-28 13:02:50 51°38.766 2°36.617 8.8944 3.691513 34.617236 -0.129967
2010-04-28 13:03:50 51°38.674 2°36.869 8.8879 3.695415 34.64594 -0.234439
2010-04-28 13:04:50 51°38.863 2°36.989 8.8829 3.691618 34.622349 -0.060319
2010-04-28 13:05:51 51°38.885 2°36.751 8.9065 3.692567 34.632262 -0.129967
2010-04-28 13:06:50 51°38.783 2°36.719 8.8927 3.695731 34.647638 -0.129967
2010-04-28 13:07:51 51°38.736 2°36.784 8.8927 3.695625 34.65296 -0.060319
2010-04-28 13:08:50 51°38.739 2°36.903 8.8826 3.697629 34.665047 -0.095143
2010-04-28 13:09:51 51°38.875 2°37.077 8.8879 3.695309 34.654475 -0.060319
2010-04-28 13:10:50 51°39.102 2°37.091 8.8698 3.69436 34.643759 -0.060319
2010-04-28 13:11:51 51°39.261 2°36.838 8.886 3.6932 34.64369 -0.025495
2010-04-28 13:12:51 51°39.285 2°36.527 8.8704 3.696469 34.679451 -0.095143
2010-04-28 13:13:51 51°39.114 2°36.514 8.8911 3.696258 34.678855 -0.234439
2010-04-28 13:14:51 51°38.994 2°36.806 8.8751 3.698578 34.687816 -0.164791
2010-04-28 13:15:50 51°39.127 2°37.078 8.8691 3.69784 34.695384 -0.199615
2010-04-28 13:16:51 51°39.247 2°36.876 8.8747 3.693306 34.659257 -0.129967
2010-04-28 13:17:50 51°39.091 2°36.844 8.902 3.692357 34.649338 -0.164791
2010-04-28 13:18:51 51°38.909 2°37.048 8.8853 3.696153 34.659269 -0.129967
2010-04-28 13:19:50 51°38.73 2°37.244 8.8709 3.697313 34.681832 -0.025495
2010-04-28 13:20:51 51°38.546 2°37.447 8.8711 3.693411 34.645893 0.044153
2010-04-28 13:21:51 51°38.381 2°37.685 8.9506 3.691513 34.620445 0.044153
2010-04-28 13:22:51 51°38.2 2°37.881 8.9073 3.693411 34.603374 0.18345
2010-04-28 13:23:51 51°38.014 2°38.058 8.9336 3.688665 34.566673 0.218274
2010-04-28 13:24:51 51°37.838 2°38.266 8.9113 3.688243 34.539871 0.148626
2010-04-28 13:25:51 51°37.652 2°38.444 8.9485 3.686872 34.529571 0.18345
2010-04-28 13:26:50 51°37.464 2°38.603 8.9391 3.689719 34.544872 0.253098
2010-04-28 13:27:50 51°37.273 2°38.765 8.9582 3.690879 34.553768 0.253098
2010-04-28 13:28:50 51°37.083 2°38.926 8.9589 3.692145 34.55417 0.287922
2010-04-28 13:29:51 51°36.888 2°39.092 8.9717 3.690985 34.53649 0.322746
2010-04-28 13:30:50 51°36.701 2°39.253 9.0113 3.690246 34.512041 0.462042
2010-04-28 13:31:51 51°36.506 2°39.419 9.0831 3.690984 34.468753 0.253098
2010-04-28 13:32:51 51°36.321 2°39.592 9.1949 3.695834 34.450059 0.218274
2010-04-28 13:33:51 51°36.143 2°39.788 9.1593 3.694989 34.36221 0.427218
2010-04-28 13:34:51 51°35.962 2°39.985 9.1005 3.690349 34.33072 0.914755
2010-04-28 13:35:50 51°35.783 2°40.178 9.0985 3.683284 34.300888 1.158523
2010-04-28 13:36:51 51°35.597 2°40.382 9.1828 3.680015 34.275669 1.506764
2010-04-28 13:37:50 51°35.415 2°40.579 9.1796 3.68244 34.247237 1.367467
2010-04-28 13:38:50 51°35.228 2°40.78 9.1574 3.680015 34.211909 1.332643
2010-04-28 13:39:50 51°35.04 2°40.977 9.1549 3.676008 34.200282 1.47194
2010-04-28 13:40:51 51°34.848 2°41.174 9.1569 3.676746 34.200853 1.47194
2010-04-28 13:41:50 51°34.659 2°41.351 9.1422 3.676535 34.200241 1.228171
2010-04-28 13:42:51 51°34.456 2°41.479 9.1306 3.673688 34.185684 0.949579
2010-04-28 13:43:51 51°34.256 2°41.604 9.1175 3.671895 34.18126 1.088875
2010-04-28 13:44:50 51°34.062 2°41.727 9.1258 3.665357 34.118228 1.054051
2010-04-28 13:45:50 51°33.866 2°41.852 9.1543 3.665041 34.101614 1.297819
2010-04-28 13:46:50 51°33.669 2°41.974 9.1526 3.661982 34.054283 1.785356
2010-04-28 13:47:51 51°33.469 2°42.101 9.1962 3.658924 34.014815 1.750532
2010-04-28 13:48:50 51°33.276 2°42.219 9.1898 3.659135 33.987324 1.541588
2010-04-28 13:49:50 51°33.08 2°42.344 9.1467 3.657237 33.965363 1.959476
2010-04-28 13:50:51 51°32.881 2°42.472 9.1579 3.651859 33.954207 2.272893
2010-04-28 13:51:50 51°32.689 2°42.594 9.1628 3.652281 33.953889 2.238069
2010-04-28 13:52:51 51°32.489 2°42.715 9.1678 3.654073 33.96307 2.307717
2010-04-28 13:53:50 51°32.294 2°42.83 9.1899 3.653757 33.955117 2.412189
2010-04-28 13:54:51 51°32.092 2°42.949 9.1825 3.654706 33.94466 2.133597
2010-04-28 13:55:50 51°31.895 2°43.065 9.2097 3.653546 33.929555 2.133597
2010-04-28 13:56:50 51°31.695 2°43.187 9.2283 3.653651 33.916632 1.9943
2010-04-28 13:57:50 51°31.493 2°43.31 9.2016 3.652808 33.907139 2.203245
2010-04-28 13:58:50 51°31.292 2°43.434 9.2263 3.651753 33.900135 2.203245
2010-04-28 13:59:51 51°31.088 2°43.559 9.2677 3.652596 33.882418 1.82018
2010-04-28 14:00:50 51°30.891 2°43.679 9.2641 3.654494 33.877162 1.785356
2010-04-28 14:01:51 51°30.686 2°43.803 9.2561 3.651014 33.836615 1.889828
2010-04-28 14:02:50 51°30.49 2°43.925 9.2052 3.648062 33.821659 2.481837
2010-04-28 14:03:51 51°30.285 2°44.04 9.1852 3.638994 33.76061 3.526559
2010-04-28 14:04:50 51°30.085 2°44.153 9.1753 3.631296 33.725259 4.39716
2010-04-28 14:05:50 51°29.883 2°44.268 9.2173 3.628976 33.674991 4.188216
2010-04-28 14:06:51 51°29.676 2°44.384 9.2211 3.629081 33.659858 4.675753
2010-04-28 14:07:50 51°29.478 2°44.499 9.259 3.628132 33.638492 4.536456
2010-04-28 14:08:51 51°29.274 2°44.622 9.299 3.626339 33.585351 4.431984
2010-04-28 14:09:50 51°29.076 2°44.741 9.3078 3.622437 33.52136 4.292688
2010-04-28 14:10:51 51°28.872 2°44.865 9.34 3.622754 33.501618 4.22304
2010-04-28 14:11:50 51°28.675 2°44.989 9.3657 3.620222 33.447291 3.700679
2010-04-28 14:12:51 51°28.469 2°45.115 9.3989 3.618429 33.382356 2.899726
2010-04-28 14:13:50 51°28.267 2°45.233 9.3258 3.621803 33.410887 3.178318
2010-04-28 14:14:50 51°28.059 2°45.35 9.283 3.615161 33.421241 3.874799
2010-04-28 14:15:50 51°27.851 2°45.464 9.2456 3.611155 33.417483 3.979271
2010-04-28 14:16:50 51°27.643 2°45.578 9.2528 3.610101 33.430355 4.04892
2010-04-28 14:17:51 51°27.432 2°45.695 9.2477 3.609995 33.428503 4.153392
2010-04-28 14:18:50 51°27.228 2°45.806 9.2735 3.608835 33.418089 4.501632
2010-04-28 14:19:51 51°27.019 2°45.921 9.2447 3.605567 33.393607 4.257864
2010-04-28 14:20:50 51°26.817 2°46.032 9.2971 3.602087 33.338668 4.640929
2010-04-28 14:21:50 51°26.611 2°46.149 9.4434 3.596498 33.24005 5.372234
2010-04-28 14:22:50 51°26.403 2°46.258 9.429 3.597656 33.12624 5.790122
2010-04-28 14:23:50 51°26.195 2°46.368 9.4411 3.590908 33.060922 6.765196
2010-04-28 14:24:50 51°25.988 2°46.481 9.4716 3.58553 32.999869 7.113436
2010-04-28 14:25:50 51°25.781 2°46.593 9.4939 3.581945 32.947435 7.217908
2010-04-28 14:26:51 51°25.571 2°46.707 9.4683 3.580363 32.911042 7.392029
2010-04-28 14:27:50 51°25.368 2°46.816 9.5002 3.576673 32.8853 7.426853
2010-04-28 14:28:51 51°25.156 2°46.928 9.4545 3.574143 32.856447 7.252733
2010-04-28 14:29:50 51°24.952 2°47.037 9.4389 3.570663 32.829856 7.357205
2010-04-28 14:30:50 51°24.744 2°47.147 9.5146 3.568238 32.795372 7.461677
2010-04-28 14:31:50 51°24.537 2°47.257 9.5551 3.563282 32.716476 7.322381
2010-04-28 14:32:50 51°24.332 2°47.375 9.573 3.560013 32.648259 7.461677
2010-04-28 14:33:50 51°24.139 2°47.54 9.6339 3.550629 32.508375 7.461677
2010-04-28 14:34:50 51°23.946 2°47.714 9.6531 3.545778 32.405438 8.08851
2010-04-28 14:35:50 51°23.751 2°47.889 9.6382 3.539452 32.358042 8.889463
2010-04-28 14:36:50 51°23.557 2°48.062 9.7297 3.539241 32.333218 9.377
2010-04-28 14:37:51 51°23.358 2°48.236 9.7563 3.538081 32.275472 9.620768
2010-04-28 14:38:50 51°23.165 2°48.404 9.8107 3.537026 32.196471 8.924287
2010-04-28 14:39:50 51°22.97 2°48.576 9.8721 3.540926 32.220684 8.192982
2010-04-28 14:40:50 51°22.776 2°48.749 9.8139 3.548306 32.264078 7.984038
2010-04-28 14:41:50 51°22.58 2°48.915 10.0761 3.543984 32.239984 3.422087
2010-04-28 14:42:50 51°22.38 2°49.07 10.234 3.543878 32.237468 -0.93092
2010-04-28 14:43:50 51°22.177 2°49.224 10.3797 3.543984 32.234182 -0.896096
2010-04-28 14:44:50 51°21.974 2°49.377 10.5114 3.543984 32.227657 -0.896096
2010-04-28 14:45:50 51°21.769 2°49.523 10.6435 3.544405 32.215977 -0.896096
2010-04-28 14:46:51 51°21.559 2°49.665 10.781 3.545038 32.207162 -0.896096
2010-04-28 14:47:50 51°21.356 2°49.807 10.9247 3.546197 32.202228 -0.896096
2010-04-28 14:48:51 51°21.148 2°49.953 11.0594 3.548095 32.203299 -0.93092
2010-04-28 14:49:50 51°20.948 2°50.09 11.1856 3.55052 32.210406 -0.896096
2010-04-28 14:50:50 51°20.739 2°50.208 11.3128 3.55326 32.203374 -0.861272
2010-04-28 14:51:50 51°20.532 2°50.32 11.4337 3.556318 32.219732 -0.93092
2010-04-28 14:52:50 51°20.327 2°50.444 11.5521 3.559586 32.228105 -0.93092
2010-04-28 14:53:50 51°20.12 2°50.563 11.6753 3.562854 32.236472 -0.93092
2010-04-28 14:54:50 51°19.911 2°50.681 11.7879 3.565912 32.242714 -0.896096
2010-04-28 14:55:51 51°19.698 2°50.801 11.9012 3.568969 32.251831 -0.896096
2010-04-28 14:56:50 51°19.491 2°50.919 12.0165 3.571921 32.259164 -0.93092
2010-04-28 14:57:51 51°19.277 2°51.041 12.1352 3.574873 32.266492 -0.93092
2010-04-28 14:58:50 51°19.071 2°51.159 12.2279 3.577825 32.274534 -0.93092
2010-04-28 14:59:50 51°18.86 2°51.282 12.3648 3.580566 32.281176 -0.93092
2010-04-28 15:00:50 51°18.65 2°51.403 12.5005 3.583413 32.288152 -0.93092
2010-04-28 15:01:50 51°18.44 2°51.524 12.5725 3.586048 32.29373 -0.965744
2010-04-28 15:02:50 51°18.231 2°51.644 12.6787 3.588895 32.300699 -0.93092
2010-04-28 15:03:50 51°18.022 2°51.764 12.7534 3.591531 32.305554 -0.93092
2010-04-28 15:04:51 51°17.813 2°51.899 12.8446 3.594061 32.308638 -0.896096
2010-04-28 15:05:50 51°17.614 2°52.05 12.9796 3.596908 32.317745 -0.93092
2010-04-28 15:06:51 51°17.409 2°52.206 13.1264 3.599438 32.320825 -0.965744
2010-04-28 15:07:50 51°17.212 2°52.366 13.1514 3.602074 32.326388 -0.896096
2010-04-28 15:08:50 51°17.014 2°52.532 13.258 3.60471 32.329804 -0.93092
2010-04-28 15:09:50 51°16.818 2°52.702 13.3593 3.607345 32.334648 -0.93092
2010-04-28 15:10:50 51°16.619 2°52.866 13.4838 3.609981 32.338777 -0.93092
2010-04-28 15:11:50 51°16.417 2°53.022 13.5724 3.612512 32.343281 -0.896096
2010-04-28 15:12:50 51°16.264 2°53.141 13.732 3.615148 32.34812 -0.93092
2010-04-28 15:13:50 51°16.161 2°53.229 13.7975 3.617783 32.352245 -0.965744
2010-04-28 15:14:50 51°16.058 2°53.311 13.8528 3.620419 32.355657 -0.93092
2010-04-28 15:15:51 51°15.943 2°53.394 13.9329 3.623055 32.358357 -0.93092
2010-04-28 15:16:50 51°15.833 2°53.482 13.9809 3.625796 32.363527 -0.93092
2010-04-28 15:17:50 51°15.722 2°53.58 14.0898 3.628432 32.365517 -0.896096
2010-04-28 15:18:50 51°15.612 2°53.688 14.1754 3.631279 32.36889 -0.93092
2010-04-28 15:19:50 51°15.511 2°53.785 14.3392 3.634126 32.373681 -0.93092
2010-04-28 15:20:50 51°15.423 2°53.884 14.3705 3.636972 32.378471 -0.93092
2010-04-28 15:21:50 51°15.336 2°53.981 14.5133 3.639819 32.382551 -0.965744
2010-04-28 15:22:51 51°15.223 2°54.112 14.5351 3.642666 32.385922 -0.93092
2010-04-28 15:23:50 51°15.081 2°54.296 14.5488 3.645407 32.38896 -0.93092
2010-04-28 15:24:50 51°14.927 2°54.514 14.6396 3.64836 32.39408 -0.965744
2010-04-28 15:25:50 51°14.769 2°54.723 14.7174 3.651206 32.399571 -0.93092
2010-04-28 15:26:50 51°14.603 2°54.919 14.8451 3.654053 32.405765 -0.93092
2010-04-28 15:27:50 51°14.437 2°55.096 14.8344 3.656795 32.410211 -0.965744
2010-04-28 15:28:50 51°14.33 2°55.22 15.0352 3.659642 32.415694 -0.93092
2010-04-28 15:29:50 51°14.241 2°55.317 15.0718 3.662488 32.417652 -0.965744
2010-04-28 15:30:50 51°14.151 2°55.397 15.1435 3.665335 32.418205 -0.896096
2010-04-28 15:31:50 51°14.05 2°55.473 15.1922 3.668287 32.421909 -0.93092
2010-04-28 15:32:50 51°13.947 2°55.546 15.2671 3.671345 32.42454 -0.93092
2010-04-28 15:33:51 51°13.847 2°55.622 15.3094 3.674298 32.428246 -0.965744
2010-04-28 15:34:54 51°13.763 2°55.704 15.4313 3.67725 32.430548 -0.93092
2010-04-28 15:35:54 51°13.714 2°55.793 15.4781 3.680202 32.432852 -0.93092
2010-04-28 15:36:54 51°13.68 2°55.884 15.5731 3.68326 32.436192 -0.93092
2010-04-28 15:37:54 51°13.663 2°55.956 15.6036 3.686318 32.441632 -0.93092